KAIK/AIK METAR and TAF weather

Enter ICAO airport designator
Station Type Date Time Source
KAIK METAR 2021/05/17 22:35 UTC NOAA

KAIK 172235Z AUTO 15005KT 10SM OVC095 25/13 A3021 RMK AO2 T02520126


Station Type Date Time Source
KAIK Decoded METAR 2021/05/17 22:35 UTC NOAA

Station name not available
May 17, 2021 - 06:35 PM EDT / 2021.05.17 2235 UTC
Wind: from the SSE (150 degrees) at 6 MPH (5 KT):0
Visibility: 10 mile(s):0
Sky conditions: overcast
Temperature: 77.4 F (25.2 C)
Dew Point: 54.7 F (12.6 C)
Relative Humidity: 45%
Pressure (altimeter): 30.21 in. Hg (1023 hPa)
ob: KAIK 172235Z AUTO 15005KT 10SM OVC095 25/13 A3021 RMK AO2 T02520126
cycle: 22

Station Type Date Time Source
KAIK TAF UTC NOAA

Error!

Example: see airport list